sensor_id;sensor_type;location;lat;lon;timestamp;P1;durP1;ratioP1;P2;durP2;ratioP2
61590;SDS011;57639;52.410;-1.966;2023-03-25T00:00:34;2.58;;;0.80;;
61590;SDS011;57639;52.410;-1.966;2023-03-25T00:04:00;3.50;;;0.90;;
61590;SDS011;57639;52.410;-1.966;2023-03-25T00:07:24;3.72;;;0.82;;
61590;SDS011;57639;52.410;-1.966;2023-03-25T00:10:50;2.70;;;0.70;;
61590;SDS011;57639;52.410;-1.966;2023-03-25T00:14:13;2.85;;;0.80;;
61590;SDS011;57639;52.410;-1.966;2023-03-25T00:17:36;2.45;;;0.80;;
61590;SDS011;57639;52.410;-1.966;2023-03-25T00:21:03;2.75;;;0.70;;
61590;SDS011;57639;52.410;-1.966;2023-03-25T00:24:28;3.65;;;1.10;;
61590;SDS011;57639;52.410;-1.966;2023-03-25T00:27:51;3.25;;;0.90;;
61590;SDS011;57639;52.410;-1.966;2023-03-25T00:31:13;2.35;;;0.60;;
61590;SDS011;57639;52.410;-1.966;2023-03-25T00:34:35;2.05;;;0.70;;
61590;SDS011;57639;52.410;-1.966;2023-03-25T00:38:07;2.72;;;0.77;;
61590;SDS011;57639;52.410;-1.966;2023-03-25T00:41:30;3.53;;;0.90;;
61590;SDS011;57639;52.410;-1.966;2023-03-25T00:44:54;1.90;;;0.75;;
61590;SDS011;57639;52.410;-1.966;2023-03-25T00:48:17;2.85;;;0.70;;
61590;SDS011;57639;52.410;-1.966;2023-03-25T00:51:40;2.83;;;0.80;;
61590;SDS011;57639;52.410;-1.966;2023-03-25T00:55:06;2.28;;;0.70;;
61590;SDS011;57639;52.410;-1.966;2023-03-25T00:58:30;1.73;;;0.60;;
61590;SDS011;57639;52.410;-1.966;2023-03-25T01:01:53;1.95;;;0.70;;
61590;SDS011;57639;52.410;-1.966;2023-03-25T01:05:16;4.82;;;0.80;;
61590;SDS011;57639;52.410;-1.966;2023-03-25T01:08:39;2.40;;;0.63;;
61590;SDS011;57639;52.410;-1.966;2023-03-25T01:12:05;3.55;;;0.80;;
61590;SDS011;57639;52.410;-1.966;2023-03-25T01:15:28;3.42;;;0.80;;
61590;SDS011;57639;52.410;-1.966;2023-03-25T01:18:51;2.28;;;0.63;;
61590;SDS011;57639;52.410;-1.966;2023-03-25T01:22:14;2.10;;;0.82;;
61590;SDS011;57639;52.410;-1.966;2023-03-25T01:25:37;3.22;;;0.90;;
61590;SDS011;57639;52.410;-1.966;2023-03-25T01:29:02;1.73;;;0.55;;
61590;SDS011;57639;52.410;-1.966;2023-03-25T01:32:25;2.67;;;0.60;;
61590;SDS011;57639;52.410;-1.966;2023-03-25T01:35:49;2.08;;;0.70;;
61590;SDS011;57639;52.410;-1.966;2023-03-25T01:39:12;3.28;;;0.82;;
61590;SDS011;57639;52.410;-1.966;2023-03-25T01:42:36;2.15;;;0.60;;
61590;SDS011;57639;52.410;-1.966;2023-03-25T01:46:02;1.95;;;0.60;;
61590;SDS011;57639;52.410;-1.966;2023-03-25T01:49:25;2.47;;;0.82;;
61590;SDS011;57639;52.410;-1.966;2023-03-25T01:52:50;2.55;;;0.60;;
61590;SDS011;57639;52.410;-1.966;2023-03-25T01:56:14;2.13;;;0.70;;
61590;SDS011;57639;52.410;-1.966;2023-03-25T01:59:40;4.03;;;0.82;;
61590;SDS011;57639;52.410;-1.966;2023-03-25T02:03:06;2.35;;;0.52;;
61590;SDS011;57639;52.410;-1.966;2023-03-25T02:06:30;2.70;;;0.68;;
61590;SDS011;57639;52.410;-1.966;2023-03-25T02:09:57;3.13;;;0.80;;
61590;SDS011;57639;52.410;-1.966;2023-03-25T02:13:22;3.28;;;0.90;;
61590;SDS011;57639;52.410;-1.966;2023-03-25T02:16:51;2.58;;;0.70;;
61590;SDS011;57639;52.410;-1.966;2023-03-25T02:24:34;1.80;;;0.70;;
61590;SDS011;57639;52.410;-1.966;2023-03-25T02:28:17;2.47;;;0.60;;
61590;SDS011;57639;52.410;-1.966;2023-03-25T02:31:58;2.17;;;0.55;;
61590;SDS011;57639;52.410;-1.966;2023-03-25T02:35:35;1.35;;;0.50;;
61590;SDS011;57639;52.410;-1.966;2023-03-25T02:39:14;4.13;;;0.82;;
61590;SDS011;57639;52.410;-1.966;2023-03-25T02:42:45;3.08;;;0.70;;
61590;SDS011;57639;52.410;-1.966;2023-03-25T02:46:14;2.88;;;0.80;;
61590;SDS011;57639;52.410;-1.966;2023-03-25T02:49:39;2.63;;;0.65;;
61590;SDS011;57639;52.410;-1.966;2023-03-25T02:53:06;2.78;;;0.50;;
61590;SDS011;57639;52.410;-1.966;2023-03-25T02:56:37;2.58;;;0.63;;
61590;SDS011;57639;52.410;-1.966;2023-03-25T03:00:03;1.70;;;0.50;;
61590;SDS011;57639;52.410;-1.966;2023-03-25T03:03:33;2.17;;;0.70;;
61590;SDS011;57639;52.410;-1.966;2023-03-25T03:06:57;2.72;;;0.70;;
61590;SDS011;57639;52.410;-1.966;2023-03-25T03:10:20;2.08;;;0.50;;
61590;SDS011;57639;52.410;-1.966;2023-03-25T03:13:55;1.73;;;0.68;;
61590;SDS011;57639;52.410;-1.966;2023-03-25T03:17:26;4.32;;;0.60;;
61590;SDS011;57639;52.410;-1.966;2023-03-25T03:21:01;1.85;;;0.52;;
61590;SDS011;57639;52.410;-1.966;2023-03-25T03:24:30;3.10;;;0.80;;
61590;SDS011;57639;52.410;-1.966;2023-03-25T03:27:58;1.10;;;0.40;;
61590;SDS011;57639;52.410;-1.966;2023-03-25T03:31:30;1.73;;;0.57;;
61590;SDS011;57639;52.410;-1.966;2023-03-25T03:35:00;1.85;;;0.60;;
61590;SDS011;57639;52.410;-1.966;2023-03-25T03:38:26;1.60;;;0.52;;
61590;SDS011;57639;52.410;-1.966;2023-03-25T03:41:53;1.30;;;0.43;;
61590;SDS011;57639;52.410;-1.966;2023-03-25T03:45:20;1.40;;;0.50;;
61590;SDS011;57639;52.410;-1.966;2023-03-25T03:48:48;2.63;;;0.68;;
61590;SDS011;57639;52.410;-1.966;2023-03-25T03:52:15;1.95;;;0.52;;
61590;SDS011;57639;52.410;-1.966;2023-03-25T03:55:43;0.73;;;0.40;;
61590;SDS011;57639;52.410;-1.966;2023-03-25T03:59:15;1.52;;;0.55;;
61590;SDS011;57639;52.410;-1.966;2023-03-25T04:02:42;1.98;;;0.60;;
61590;SDS011;57639;52.410;-1.966;2023-03-25T04:06:14;1.63;;;0.55;;
61590;SDS011;57639;52.410;-1.966;2023-03-25T04:09:44;0.88;;;0.40;;
61590;SDS011;57639;52.410;-1.966;2023-03-25T04:13:14;1.30;;;0.60;;
61590;SDS011;57639;52.410;-1.966;2023-03-25T04:16:40;2.25;;;0.65;;
61590;SDS011;57639;52.410;-1.966;2023-03-25T04:20:03;1.63;;;0.50;;
61590;SDS011;57639;52.410;-1.966;2023-03-25T04:23:32;1.55;;;0.50;;
61590;SDS011;57639;52.410;-1.966;2023-03-25T04:26:55;1.83;;;0.57;;
61590;SDS011;57639;52.410;-1.966;2023-03-25T04:30:22;1.33;;;0.50;;
61590;SDS011;57639;52.410;-1.966;2023-03-25T04:33:45;1.50;;;0.50;;
61590;SDS011;57639;52.410;-1.966;2023-03-25T04:37:08;2.65;;;0.55;;
61590;SDS011;57639;52.410;-1.966;2023-03-25T04:40:33;1.35;;;0.40;;
61590;SDS011;57639;52.410;-1.966;2023-03-25T04:43:58;1.52;;;0.50;;
61590;SDS011;57639;52.410;-1.966;2023-03-25T04:47:22;1.65;;;0.35;;
61590;SDS011;57639;52.410;-1.966;2023-03-25T04:50:46;1.35;;;0.50;;
61590;SDS011;57639;52.410;-1.966;2023-03-25T04:54:09;0.90;;;0.30;;
61590;SDS011;57639;52.410;-1.966;2023-03-25T04:57:35;2.03;;;0.60;;
61590;SDS011;57639;52.410;-1.966;2023-03-25T05:00:57;2.15;;;0.63;;
61590;SDS011;57639;52.410;-1.966;2023-03-25T05:04:23;1.90;;;0.40;;
61590;SDS011;57639;52.410;-1.966;2023-03-25T05:07:46;1.65;;;0.57;;
61590;SDS011;57639;52.410;-1.966;2023-03-25T05:11:10;1.83;;;0.45;;
61590;SDS011;57639;52.410;-1.966;2023-03-25T05:14:35;1.33;;;0.60;;
61590;SDS011;57639;52.410;-1.966;2023-03-25T05:17:58;1.48;;;0.50;;
61590;SDS011;57639;52.410;-1.966;2023-03-25T05:21:20;1.70;;;0.40;;
61590;SDS011;57639;52.410;-1.966;2023-03-25T05:24:43;3.08;;;0.60;;
61590;SDS011;57639;52.410;-1.966;2023-03-25T05:28:05;0.70;;;0.20;;
61590;SDS011;57639;52.410;-1.966;2023-03-25T05:31:34;1.30;;;0.50;;
61590;SDS011;57639;52.410;-1.966;2023-03-25T05:34:57;1.10;;;0.52;;
61590;SDS011;57639;52.410;-1.966;2023-03-25T05:38:20;1.38;;;0.50;;
61590;SDS011;57639;52.410;-1.966;2023-03-25T05:41:42;1.58;;;0.50;;
61590;SDS011;57639;52.410;-1.966;2023-03-25T05:45:05;1.70;;;0.50;;
61590;SDS011;57639;52.410;-1.966;2023-03-25T05:48:33;1.05;;;0.50;;
61590;SDS011;57639;52.410;-1.966;2023-03-25T05:51:59;1.52;;;0.45;;
61590;SDS011;57639;52.410;-1.966;2023-03-25T05:55:22;0.93;;;0.28;;
61590;SDS011;57639;52.410;-1.966;2023-03-25T05:58:46;0.50;;;0.22;;
61590;SDS011;57639;52.410;-1.966;2023-03-25T06:02:10;1.80;;;0.50;;
61590;SDS011;57639;52.410;-1.966;2023-03-25T06:05:37;0.73;;;0.20;;
61590;SDS011;57639;52.410;-1.966;2023-03-25T06:09:00;1.55;;;0.50;;
61590;SDS011;57639;52.410;-1.966;2023-03-25T06:12:23;1.48;;;0.40;;
61590;SDS011;57639;52.410;-1.966;2023-03-25T06:15:47;0.95;;;0.28;;
61590;SDS011;57639;52.410;-1.966;2023-03-25T06:19:13;1.27;;;0.50;;
61590;SDS011;57639;52.410;-1.966;2023-03-25T06:26:09;1.05;;;0.30;;
61590;SDS011;57639;52.410;-1.966;2023-03-25T06:29:32;0.75;;;0.38;;
61590;SDS011;57639;52.410;-1.966;2023-03-25T06:32:55;1.50;;;0.47;;
61590;SDS011;57639;52.410;-1.966;2023-03-25T06:36:20;1.17;;;0.25;;
61590;SDS011;57639;52.410;-1.966;2023-03-25T06:39:46;1.80;;;0.50;;
61590;SDS011;57639;52.410;-1.966;2023-03-25T06:43:08;0.82;;;0.30;;
61590;SDS011;57639;52.410;-1.966;2023-03-25T06:46:31;1.25;;;0.30;;
61590;SDS011;57639;52.410;-1.966;2023-03-25T06:49:54;0.85;;;0.32;;
61590;SDS011;57639;52.410;-1.966;2023-03-25T06:53:16;2.10;;;0.50;;
61590;SDS011;57639;52.410;-1.966;2023-03-25T06:56:42;1.48;;;0.40;;
61590;SDS011;57639;52.410;-1.966;2023-03-25T07:00:06;1.50;;;0.50;;
61590;SDS011;57639;52.410;-1.966;2023-03-25T07:03:29;1.35;;;0.50;;
61590;SDS011;57639;52.410;-1.966;2023-03-25T07:06:52;1.58;;;0.40;;
61590;SDS011;57639;52.410;-1.966;2023-03-25T07:10:15;1.35;;;0.47;;
61590;SDS011;57639;52.410;-1.966;2023-03-25T07:13:40;0.63;;;0.38;;
61590;SDS011;57639;52.410;-1.966;2023-03-25T07:17:03;1.10;;;0.40;;
61590;SDS011;57639;52.410;-1.966;2023-03-25T07:20:26;1.30;;;0.38;;
61590;SDS011;57639;52.410;-1.966;2023-03-25T07:23:49;1.38;;;0.30;;
61590;SDS011;57639;52.410;-1.966;2023-03-25T07:27:13;0.60;;;0.22;;
61590;SDS011;57639;52.410;-1.966;2023-03-25T07:30:39;1.45;;;0.40;;
61590;SDS011;57639;52.410;-1.966;2023-03-25T07:34:01;0.70;;;0.22;;
61590;SDS011;57639;52.410;-1.966;2023-03-25T07:37:26;0.43;;;0.28;;
61590;SDS011;57639;52.410;-1.966;2023-03-25T07:40:48;1.45;;;0.30;;
61590;SDS011;57639;52.410;-1.966;2023-03-25T07:44:11;1.17;;;0.40;;
61590;SDS011;57639;52.410;-1.966;2023-03-25T07:47:40;1.02;;;0.30;;
61590;SDS011;57639;52.410;-1.966;2023-03-25T07:51:08;0.98;;;0.30;;
61590;SDS011;57639;52.410;-1.966;2023-03-25T07:54:30;0.85;;;0.30;;
61590;SDS011;57639;52.410;-1.966;2023-03-25T07:57:53;1.10;;;0.30;;
61590;SDS011;57639;52.410;-1.966;2023-03-25T08:01:18;1.17;;;0.40;;
61590;SDS011;57639;52.410;-1.966;2023-03-25T08:04:44;1.25;;;0.32;;
61590;SDS011;57639;52.410;-1.966;2023-03-25T08:08:07;0.85;;;0.30;;
61590;SDS011;57639;52.410;-1.966;2023-03-25T08:11:33;2.05;;;0.30;;
61590;SDS011;57639;52.410;-1.966;2023-03-25T08:14:56;0.63;;;0.20;;
61590;SDS011;57639;52.410;-1.966;2023-03-25T08:18:18;1.92;;;0.30;;
61590;SDS011;57639;52.410;-1.966;2023-03-25T08:21:46;1.38;;;0.30;;
61590;SDS011;57639;52.410;-1.966;2023-03-25T08:25:09;1.52;;;0.30;;
61590;SDS011;57639;52.410;-1.966;2023-03-25T08:28:32;1.52;;;0.30;;
61590;SDS011;57639;52.410;-1.966;2023-03-25T08:31:54;1.63;;;0.30;;
61590;SDS011;57639;52.410;-1.966;2023-03-25T08:35:17;0.55;;;0.20;;
61590;SDS011;57639;52.410;-1.966;2023-03-25T08:38:44;1.58;;;0.25;;
61590;SDS011;57639;52.410;-1.966;2023-03-25T08:42:07;0.55;;;0.25;;
61590;SDS011;57639;52.410;-1.966;2023-03-25T08:45:30;0.40;;;0.20;;
61590;SDS011;57639;52.410;-1.966;2023-03-25T08:48:54;1.10;;;0.30;;
61590;SDS011;57639;52.410;-1.966;2023-03-25T08:52:16;0.82;;;0.30;;
61590;SDS011;57639;52.410;-1.966;2023-03-25T08:55:42;1.63;;;0.40;;
61590;SDS011;57639;52.410;-1.966;2023-03-25T08:59:05;0.95;;;0.20;;
61590;SDS011;57639;52.410;-1.966;2023-03-25T09:02:27;1.88;;;0.20;;
61590;SDS011;57639;52.410;-1.966;2023-03-25T09:05:50;1.50;;;0.28;;
61590;SDS011;57639;52.410;-1.966;2023-03-25T09:09:13;2.47;;;0.40;;
61590;SDS011;57639;52.410;-1.966;2023-03-25T09:12:38;0.70;;;0.17;;
61590;SDS011;57639;52.410;-1.966;2023-03-25T09:16:01;2.20;;;0.13;;
61590;SDS011;57639;52.410;-1.966;2023-03-25T09:19:24;1.38;;;0.40;;
61590;SDS011;57639;52.410;-1.966;2023-03-25T09:22:47;0.70;;;0.15;;
61590;SDS011;57639;52.410;-1.966;2023-03-25T09:26:10;0.73;;;0.30;;
61590;SDS011;57639;52.410;-1.966;2023-03-25T09:29:35;1.27;;;0.47;;
61590;SDS011;57639;52.410;-1.966;2023-03-25T09:32:58;1.30;;;0.35;;
61590;SDS011;57639;52.410;-1.966;2023-03-25T09:36:21;1.33;;;0.30;;
61590;SDS011;57639;52.410;-1.966;2023-03-25T09:39:44;0.85;;;0.40;;
61590;SDS011;57639;52.410;-1.966;2023-03-25T09:43:13;1.08;;;0.28;;
61590;SDS011;57639;52.410;-1.966;2023-03-25T09:46:52;0.85;;;0.30;;
61590;SDS011;57639;52.410;-1.966;2023-03-25T09:50:16;1.60;;;0.40;;
61590;SDS011;57639;52.410;-1.966;2023-03-25T09:53:42;1.80;;;0.20;;
61590;SDS011;57639;52.410;-1.966;2023-03-25T09:57:10;2.17;;;0.32;;
61590;SDS011;57639;52.410;-1.966;2023-03-25T10:00:38;0.75;;;0.30;;
61590;SDS011;57639;52.410;-1.966;2023-03-25T10:04:11;1.08;;;0.40;;
61590;SDS011;57639;52.410;-1.966;2023-03-25T10:07:55;1.38;;;0.40;;
61590;SDS011;57639;52.410;-1.966;2023-03-25T10:11:28;0.85;;;0.38;;
61590;SDS011;57639;52.410;-1.966;2023-03-25T10:14:59;0.52;;;0.20;;
61590;SDS011;57639;52.410;-1.966;2023-03-25T10:18:42;1.70;;;0.30;;
61590;SDS011;57639;52.410;-1.966;2023-03-25T10:22:20;1.23;;;0.40;;
61590;SDS011;57639;52.410;-1.966;2023-03-25T10:25:59;0.93;;;0.20;;
61590;SDS011;57639;52.410;-1.966;2023-03-25T10:29:26;0.80;;;0.28;;
61590;SDS011;57639;52.410;-1.966;2023-03-25T10:32:53;3.55;;;0.50;;
61590;SDS011;57639;52.410;-1.966;2023-03-25T10:36:18;3.80;;;0.32;;
61590;SDS011;57639;52.410;-1.966;2023-03-25T10:39:51;2.42;;;0.43;;
61590;SDS011;57639;52.410;-1.966;2023-03-25T10:43:17;0.95;;;0.40;;
61590;SDS011;57639;52.410;-1.966;2023-03-25T10:46:48;3.05;;;0.40;;
61590;SDS011;57639;52.410;-1.966;2023-03-25T10:50:13;1.27;;;0.30;;
61590;SDS011;57639;52.410;-1.966;2023-03-25T10:53:37;4.95;;;0.70;;
61590;SDS011;57639;52.410;-1.966;2023-03-25T10:57:06;3.05;;;0.60;;
61590;SDS011;57639;52.410;-1.966;2023-03-25T11:00:31;1.88;;;0.40;;
61590;SDS011;57639;52.410;-1.966;2023-03-25T11:03:53;2.90;;;0.50;;
61590;SDS011;57639;52.410;-1.966;2023-03-25T11:07:19;1.73;;;0.50;;
61590;SDS011;57639;52.410;-1.966;2023-03-25T11:10:46;2.00;;;0.45;;
61590;SDS011;57639;52.410;-1.966;2023-03-25T11:14:16;10.52;;;1.02;;
61590;SDS011;57639;52.410;-1.966;2023-03-25T11:21:08;38.17;;;1.95;;
61590;SDS011;57639;52.410;-1.966;2023-03-25T11:24:33;15.20;;;1.02;;
61590;SDS011;57639;52.410;-1.966;2023-03-25T11:31:35;10.00;;;0.95;;
61590;SDS011;57639;52.410;-1.966;2023-03-25T11:34:59;18.45;;;1.48;;
61590;SDS011;57639;52.410;-1.966;2023-03-25T11:38:28;11.83;;;1.20;;
61590;SDS011;57639;52.410;-1.966;2023-03-25T11:41:53;11.20;;;0.80;;
61590;SDS011;57639;52.410;-1.966;2023-03-25T11:45:20;15.90;;;1.35;;
61590;SDS011;57639;52.410;-1.966;2023-03-25T11:48:47;8.68;;;1.00;;
61590;SDS011;57639;52.410;-1.966;2023-03-25T11:52:12;14.98;;;1.20;;
61590;SDS011;57639;52.410;-1.966;2023-03-25T11:55:40;10.32;;;1.23;;
61590;SDS011;57639;52.410;-1.966;2023-03-25T11:59:07;12.52;;;0.90;;
61590;SDS011;57639;52.410;-1.966;2023-03-25T12:02:37;6.70;;;1.10;;
61590;SDS011;57639;52.410;-1.966;2023-03-25T12:06:06;6.43;;;0.93;;
61590;SDS011;57639;52.410;-1.966;2023-03-25T12:09:37;5.95;;;0.75;;
61590;SDS011;57639;52.410;-1.966;2023-03-25T12:13:16;6.72;;;0.80;;
61590;SDS011;57639;52.410;-1.966;2023-03-25T12:16:48;7.35;;;0.95;;
61590;SDS011;57639;52.410;-1.966;2023-03-25T12:20:22;9.10;;;0.90;;
61590;SDS011;57639;52.410;-1.966;2023-03-25T12:23:54;5.20;;;0.50;;
61590;SDS011;57639;52.410;-1.966;2023-03-25T12:27:32;13.80;;;1.17;;
61590;SDS011;57639;52.410;-1.966;2023-03-25T12:31:05;7.45;;;0.70;;
61590;SDS011;57639;52.410;-1.966;2023-03-25T12:34:38;2.40;;;0.52;;
61590;SDS011;57639;52.410;-1.966;2023-03-25T12:38:14;5.97;;;0.55;;
61590;SDS011;57639;52.410;-1.966;2023-03-25T12:41:55;3.55;;;0.73;;
61590;SDS011;57639;52.410;-1.966;2023-03-25T12:45:33;5.07;;;0.75;;
61590;SDS011;57639;52.410;-1.966;2023-03-25T12:52:46;4.00;;;0.60;;
61590;SDS011;57639;52.410;-1.966;2023-03-25T12:56:29;2.42;;;0.50;;
61590;SDS011;57639;52.410;-1.966;2023-03-25T13:00:23;4.03;;;0.50;;
61590;SDS011;57639;52.410;-1.966;2023-03-25T13:03:55;6.28;;;0.75;;
61590;SDS011;57639;52.410;-1.966;2023-03-25T13:07:26;3.40;;;0.40;;
61590;SDS011;57639;52.410;-1.966;2023-03-25T13:10:55;3.60;;;0.60;;
61590;SDS011;57639;52.410;-1.966;2023-03-25T13:14:23;2.23;;;0.57;;
61590;SDS011;57639;52.410;-1.966;2023-03-25T13:17:53;1.58;;;0.40;;
61590;SDS011;57639;52.410;-1.966;2023-03-25T13:21:20;2.63;;;0.50;;
61590;SDS011;57639;52.410;-1.966;2023-03-25T13:24:47;2.95;;;0.60;;
61590;SDS011;57639;52.410;-1.966;2023-03-25T13:28:15;2.78;;;0.57;;
61590;SDS011;57639;52.410;-1.966;2023-03-25T13:31:43;3.40;;;0.70;;
61590;SDS011;57639;52.410;-1.966;2023-03-25T13:35:14;1.90;;;0.50;;
61590;SDS011;57639;52.410;-1.966;2023-03-25T13:38:40;2.08;;;0.57;;
61590;SDS011;57639;52.410;-1.966;2023-03-25T13:42:09;5.80;;;0.80;;
61590;SDS011;57639;52.410;-1.966;2023-03-25T13:45:40;4.03;;;0.70;;
61590;SDS011;57639;52.410;-1.966;2023-03-25T13:52:37;1.55;;;0.60;;
61590;SDS011;57639;52.410;-1.966;2023-03-25T13:56:16;4.45;;;0.52;;
61590;SDS011;57639;52.410;-1.966;2023-03-25T14:00:18;1.02;;;0.50;;
61590;SDS011;57639;52.410;-1.966;2023-03-25T14:07:51;2.50;;;0.45;;
61590;SDS011;57639;52.410;-1.966;2023-03-25T14:11:28;4.13;;;0.70;;
61590;SDS011;57639;52.410;-1.966;2023-03-25T14:14:56;0.93;;;0.35;;
61590;SDS011;57639;52.410;-1.966;2023-03-25T14:18:23;2.25;;;0.60;;
61590;SDS011;57639;52.410;-1.966;2023-03-25T14:21:49;4.40;;;0.70;;
61590;SDS011;57639;52.410;-1.966;2023-03-25T14:25:20;2.03;;;0.60;;
61590;SDS011;57639;52.410;-1.966;2023-03-25T14:28:50;5.53;;;0.60;;
61590;SDS011;57639;52.410;-1.966;2023-03-25T14:32:28;1.50;;;0.40;;
61590;SDS011;57639;52.410;-1.966;2023-03-25T14:35:55;3.03;;;0.40;;
61590;SDS011;57639;52.410;-1.966;2023-03-25T14:43:16;1.75;;;0.47;;
61590;SDS011;57639;52.410;-1.966;2023-03-25T14:46:41;1.60;;;0.65;;
61590;SDS011;57639;52.410;-1.966;2023-03-25T14:53:56;3.20;;;0.70;;
61590;SDS011;57639;52.410;-1.966;2023-03-25T15:00:52;3.00;;;0.70;;
61590;SDS011;57639;52.410;-1.966;2023-03-25T15:04:21;2.10;;;0.80;;
61590;SDS011;57639;52.410;-1.966;2023-03-25T15:07:50;2.50;;;0.40;;
61590;SDS011;57639;52.410;-1.966;2023-03-25T15:11:17;1.40;;;0.40;;
61590;SDS011;57639;52.410;-1.966;2023-03-25T15:14:47;1.95;;;0.55;;
61590;SDS011;57639;52.410;-1.966;2023-03-25T15:18:56;2.50;;;0.40;;
61590;SDS011;57639;52.410;-1.966;2023-03-25T15:22:19;2.65;;;0.40;;
61590;SDS011;57639;52.410;-1.966;2023-03-25T15:25:43;3.53;;;0.50;;
61590;SDS011;57639;52.410;-1.966;2023-03-25T15:33:10;2.80;;;0.60;;
61590;SDS011;57639;52.410;-1.966;2023-03-25T15:36:46;1.27;;;0.40;;
61590;SDS011;57639;52.410;-1.966;2023-03-25T15:40:27;1.80;;;0.30;;
61590;SDS011;57639;52.410;-1.966;2023-03-25T15:51:51;3.83;;;0.80;;
61590;SDS011;57639;52.410;-1.966;2023-03-25T15:55:25;1.75;;;0.57;;
61590;SDS011;57639;52.410;-1.966;2023-03-25T15:58:53;2.22;;;0.40;;
61590;SDS011;57639;52.410;-1.966;2023-03-25T16:02:23;3.40;;;0.60;;
61590;SDS011;57639;52.410;-1.966;2023-03-25T16:05:52;1.45;;;0.47;;
61590;SDS011;57639;52.410;-1.966;2023-03-25T16:09:19;1.73;;;0.40;;
61590;SDS011;57639;52.410;-1.966;2023-03-25T16:12:44;1.52;;;0.52;;
61590;SDS011;57639;52.410;-1.966;2023-03-25T16:16:08;2.85;;;0.60;;
61590;SDS011;57639;52.410;-1.966;2023-03-25T16:19:33;2.42;;;0.70;;
61590;SDS011;57639;52.410;-1.966;2023-03-25T16:23:03;2.13;;;0.65;;
61590;SDS011;57639;52.410;-1.966;2023-03-25T16:26:34;1.48;;;0.50;;
61590;SDS011;57639;52.410;-1.966;2023-03-25T16:29:58;2.97;;;0.50;;
61590;SDS011;57639;52.410;-1.966;2023-03-25T16:33:24;1.90;;;0.60;;
61590;SDS011;57639;52.410;-1.966;2023-03-25T16:36:48;3.03;;;0.70;;
61590;SDS011;57639;52.410;-1.966;2023-03-25T16:40:18;2.00;;;0.52;;
61590;SDS011;57639;52.410;-1.966;2023-03-25T16:43:46;6.30;;;1.00;;
61590;SDS011;57639;52.410;-1.966;2023-03-25T16:47:10;2.67;;;0.70;;
61590;SDS011;57639;52.410;-1.966;2023-03-25T16:50:35;3.15;;;0.70;;
61590;SDS011;57639;52.410;-1.966;2023-03-25T16:53:58;2.90;;;0.70;;
61590;SDS011;57639;52.410;-1.966;2023-03-25T16:57:25;2.38;;;0.90;;
61590;SDS011;57639;52.410;-1.966;2023-03-25T17:00:49;2.38;;;0.65;;
61590;SDS011;57639;52.410;-1.966;2023-03-25T17:04:14;1.30;;;0.60;;
61590;SDS011;57639;52.410;-1.966;2023-03-25T17:07:40;2.30;;;0.70;;
61590;SDS011;57639;52.410;-1.966;2023-03-25T17:11:04;2.90;;;0.60;;
61590;SDS011;57639;52.410;-1.966;2023-03-25T17:14:34;3.28;;;0.70;;
61590;SDS011;57639;52.410;-1.966;2023-03-25T17:17:58;1.65;;;0.65;;
61590;SDS011;57639;52.410;-1.966;2023-03-25T17:21:24;1.98;;;0.60;;
61590;SDS011;57639;52.410;-1.966;2023-03-25T17:24:49;2.83;;;0.80;;
61590;SDS011;57639;52.410;-1.966;2023-03-25T17:28:21;4.47;;;0.80;;
61590;SDS011;57639;52.410;-1.966;2023-03-25T17:31:56;4.43;;;0.88;;
61590;SDS011;57639;52.410;-1.966;2023-03-25T17:35:37;1.90;;;0.80;;
61590;SDS011;57639;52.410;-1.966;2023-03-25T17:39:03;2.40;;;0.80;;
61590;SDS011;57639;52.410;-1.966;2023-03-25T17:42:30;2.38;;;0.70;;
61590;SDS011;57639;52.410;-1.966;2023-03-25T17:45:55;4.07;;;1.00;;
61590;SDS011;57639;52.410;-1.966;2023-03-25T17:49:22;2.55;;;0.80;;
61590;SDS011;57639;52.410;-1.966;2023-03-25T17:52:44;2.35;;;0.90;;
61590;SDS011;57639;52.410;-1.966;2023-03-25T17:56:08;4.13;;;1.00;;
61590;SDS011;57639;52.410;-1.966;2023-03-25T17:59:34;9.07;;;1.00;;
61590;SDS011;57639;52.410;-1.966;2023-03-25T18:02:56;2.95;;;1.23;;
61590;SDS011;57639;52.410;-1.966;2023-03-25T18:06:22;3.63;;;1.23;;
61590;SDS011;57639;52.410;-1.966;2023-03-25T18:09:45;3.70;;;1.52;;
61590;SDS011;57639;52.410;-1.966;2023-03-25T18:13:08;5.22;;;1.67;;
61590;SDS011;57639;52.410;-1.966;2023-03-25T18:16:31;3.63;;;2.00;;
61590;SDS011;57639;52.410;-1.966;2023-03-25T18:19:54;4.93;;;1.67;;
61590;SDS011;57639;52.410;-1.966;2023-03-25T18:23:19;4.85;;;1.77;;
61590;SDS011;57639;52.410;-1.966;2023-03-25T18:26:42;2.78;;;1.80;;
61590;SDS011;57639;52.410;-1.966;2023-03-25T18:30:12;4.15;;;2.22;;
61590;SDS011;57639;52.410;-1.966;2023-03-25T18:33:38;4.60;;;1.85;;
61590;SDS011;57639;52.410;-1.966;2023-03-25T18:37:01;5.00;;;2.00;;
61590;SDS011;57639;52.410;-1.966;2023-03-25T18:40:27;5.25;;;2.05;;
61590;SDS011;57639;52.410;-1.966;2023-03-25T18:43:54;4.72;;;2.10;;
61590;SDS011;57639;52.410;-1.966;2023-03-25T18:47:16;5.35;;;1.98;;
61590;SDS011;57639;52.410;-1.966;2023-03-25T18:50:39;4.90;;;1.90;;
61590;SDS011;57639;52.410;-1.966;2023-03-25T18:54:10;3.75;;;1.80;;
61590;SDS011;57639;52.410;-1.966;2023-03-25T18:57:35;4.25;;;1.60;;
61590;SDS011;57639;52.410;-1.966;2023-03-25T19:01:01;3.90;;;1.20;;
61590;SDS011;57639;52.410;-1.966;2023-03-25T19:04:25;2.38;;;1.40;;
61590;SDS011;57639;52.410;-1.966;2023-03-25T19:07:50;4.22;;;1.25;;
61590;SDS011;57639;52.410;-1.966;2023-03-25T19:11:13;3.70;;;1.42;;
61590;SDS011;57639;52.410;-1.966;2023-03-25T19:14:38;3.13;;;1.20;;
61590;SDS011;57639;52.410;-1.966;2023-03-25T19:18:01;5.03;;;1.30;;
61590;SDS011;57639;52.410;-1.966;2023-03-25T19:21:27;2.85;;;1.13;;
61590;SDS011;57639;52.410;-1.966;2023-03-25T19:24:49;4.65;;;1.02;;
61590;SDS011;57639;52.410;-1.966;2023-03-25T19:28:12;5.20;;;1.13;;
61590;SDS011;57639;52.410;-1.966;2023-03-25T19:31:39;4.75;;;1.15;;
61590;SDS011;57639;52.410;-1.966;2023-03-25T19:35:01;3.25;;;1.02;;
61590;SDS011;57639;52.410;-1.966;2023-03-25T19:38:26;2.33;;;1.13;;
61590;SDS011;57639;52.410;-1.966;2023-03-25T19:41:50;5.35;;;1.25;;
61590;SDS011;57639;52.410;-1.966;2023-03-25T19:45:13;3.78;;;1.40;;
61590;SDS011;57639;52.410;-1.966;2023-03-25T19:48:41;5.20;;;1.63;;
61590;SDS011;57639;52.410;-1.966;2023-03-25T19:52:03;3.78;;;1.50;;
61590;SDS011;57639;52.410;-1.966;2023-03-25T19:55:26;4.30;;;1.73;;
61590;SDS011;57639;52.410;-1.966;2023-03-25T19:58:50;2.88;;;1.10;;
61590;SDS011;57639;52.410;-1.966;2023-03-25T20:02:12;3.25;;;1.45;;
61590;SDS011;57639;52.410;-1.966;2023-03-25T20:05:38;3.58;;;1.42;;
61590;SDS011;57639;52.410;-1.966;2023-03-25T20:09:01;3.40;;;1.63;;
61590;SDS011;57639;52.410;-1.966;2023-03-25T20:12:28;4.53;;;1.95;;
61590;SDS011;57639;52.410;-1.966;2023-03-25T20:15:51;4.22;;;1.83;;
61590;SDS011;57639;52.410;-1.966;2023-03-25T20:19:14;4.72;;;1.70;;
61590;SDS011;57639;52.410;-1.966;2023-03-25T20:22:40;3.90;;;1.80;;
61590;SDS011;57639;52.410;-1.966;2023-03-25T20:26:03;3.95;;;1.95;;
61590;SDS011;57639;52.410;-1.966;2023-03-25T20:29:26;4.20;;;1.80;;
61590;SDS011;57639;52.410;-1.966;2023-03-25T20:32:49;4.85;;;1.70;;
61590;SDS011;57639;52.410;-1.966;2023-03-25T20:36:12;3.40;;;1.73;;
61590;SDS011;57639;52.410;-1.966;2023-03-25T20:39:38;4.53;;;2.20;;
61590;SDS011;57639;52.410;-1.966;2023-03-25T20:43:01;5.28;;;2.00;;
61590;SDS011;57639;52.410;-1.966;2023-03-25T20:46:24;4.88;;;1.95;;
61590;SDS011;57639;52.410;-1.966;2023-03-25T20:49:49;4.55;;;1.80;;
61590;SDS011;57639;52.410;-1.966;2023-03-25T20:53:11;6.30;;;2.00;;
61590;SDS011;57639;52.410;-1.966;2023-03-25T20:56:37;5.25;;;1.90;;
61590;SDS011;57639;52.410;-1.966;2023-03-25T21:00:00;5.65;;;2.03;;
61590;SDS011;57639;52.410;-1.966;2023-03-25T21:03:22;4.88;;;1.98;;
61590;SDS011;57639;52.410;-1.966;2023-03-25T21:06:46;4.72;;;2.00;;
61590;SDS011;57639;52.410;-1.966;2023-03-25T21:10:09;3.97;;;1.88;;
61590;SDS011;57639;52.410;-1.966;2023-03-25T21:13:35;6.35;;;1.88;;